sensor_id;sensor_type;location;lat;lon;timestamp;P1;durP1;ratioP1;P2;durP2;ratioP2
68365;SDS011;55283;51.466;5.478;2022-07-30T00:00:03;4.53;;;1.80;;
68365;SDS011;55283;51.466;5.478;2022-07-30T00:02:31;4.07;;;2.00;;
68365;SDS011;55283;51.466;5.478;2022-07-30T00:04:56;4.20;;;1.80;;
68365;SDS011;55283;51.466;5.478;2022-07-30T00:07:22;3.33;;;1.80;;
68365;SDS011;55283;51.466;5.478;2022-07-30T00:09:47;3.93;;;1.80;;
68365;SDS011;55283;51.466;5.478;2022-07-30T00:12:13;6.50;;;1.90;;
68365;SDS011;55283;51.466;5.478;2022-07-30T00:14:39;3.20;;;1.83;;
68365;SDS011;55283;51.466;5.478;2022-07-30T00:17:05;3.90;;;2.00;;
68365;SDS011;55283;51.466;5.478;2022-07-30T00:19:30;5.13;;;2.33;;
68365;SDS011;55283;51.466;5.478;2022-07-30T00:21:56;4.57;;;1.90;;
68365;SDS011;55283;51.466;5.478;2022-07-30T00:24:21;2.77;;;1.80;;
68365;SDS011;55283;51.466;5.478;2022-07-30T00:26:47;4.32;;;1.92;;
68365;SDS011;55283;51.466;5.478;2022-07-30T00:29:13;6.10;;;2.00;;
68365;SDS011;55283;51.466;5.478;2022-07-30T00:31:39;5.50;;;1.93;;
68365;SDS011;55283;51.466;5.478;2022-07-30T00:34:04;4.87;;;2.00;;
68365;SDS011;55283;51.466;5.478;2022-07-30T00:36:30;6.83;;;2.20;;
68365;SDS011;55283;51.466;5.478;2022-07-30T00:38:55;3.07;;;2.00;;
68365;SDS011;55283;51.466;5.478;2022-07-30T00:41:20;4.17;;;2.00;;
68365;SDS011;55283;51.466;5.478;2022-07-30T00:43:46;4.47;;;2.20;;
68365;SDS011;55283;51.466;5.478;2022-07-30T00:46:11;5.03;;;2.30;;
68365;SDS011;55283;51.466;5.478;2022-07-30T00:48:38;4.75;;;2.22;;
68365;SDS011;55283;51.466;5.478;2022-07-30T00:51:04;3.83;;;2.07;;
68365;SDS011;55283;51.466;5.478;2022-07-30T00:53:29;5.37;;;2.30;;
68365;SDS011;55283;51.466;5.478;2022-07-30T00:55:55;4.53;;;2.00;;
68365;SDS011;55283;51.466;5.478;2022-07-30T00:58:20;4.00;;;2.10;;
68365;SDS011;55283;51.466;5.478;2022-07-30T01:00:46;4.57;;;2.10;;
68365;SDS011;55283;51.466;5.478;2022-07-30T01:03:11;3.97;;;1.77;;
68365;SDS011;55283;51.466;5.478;2022-07-30T01:05:36;3.55;;;1.88;;
68365;SDS011;55283;51.466;5.478;2022-07-30T01:08:02;4.43;;;1.97;;
68365;SDS011;55283;51.466;5.478;2022-07-30T01:10:27;4.70;;;2.27;;
68365;SDS011;55283;51.466;5.478;2022-07-30T01:12:55;4.50;;;2.10;;
68365;SDS011;55283;51.466;5.478;2022-07-30T01:15:23;4.55;;;2.40;;
68365;SDS011;55283;51.466;5.478;2022-07-30T01:17:53;4.75;;;2.53;;
68365;SDS011;55283;51.466;5.478;2022-07-30T01:20:32;5.38;;;2.00;;
68365;SDS011;55283;51.466;5.478;2022-07-30T01:23:17;5.13;;;2.23;;
68365;SDS011;55283;51.466;5.478;2022-07-30T01:28:48;5.70;;;2.17;;
68365;SDS011;55283;51.466;5.478;2022-07-30T01:31:15;5.07;;;2.20;;
68365;SDS011;55283;51.466;5.478;2022-07-30T01:33:44;5.22;;;2.45;;
68365;SDS011;55283;51.466;5.478;2022-07-30T01:36:12;5.75;;;2.30;;
68365;SDS011;55283;51.466;5.478;2022-07-30T01:38:40;5.73;;;2.30;;
68365;SDS011;55283;51.466;5.478;2022-07-30T01:41:11;5.25;;;2.10;;
68365;SDS011;55283;51.466;5.478;2022-07-30T01:43:41;3.60;;;2.05;;
68365;SDS011;55283;51.466;5.478;2022-07-30T01:46:09;3.20;;;2.17;;
68365;SDS011;55283;51.466;5.478;2022-07-30T01:48:38;4.07;;;2.13;;
68365;SDS011;55283;51.466;5.478;2022-07-30T01:51:06;4.47;;;2.40;;
68365;SDS011;55283;51.466;5.478;2022-07-30T01:53:35;3.90;;;2.20;;
68365;SDS011;55283;51.466;5.478;2022-07-30T01:56:02;3.20;;;2.20;;
68365;SDS011;55283;51.466;5.478;2022-07-30T01:58:30;4.40;;;2.03;;
68365;SDS011;55283;51.466;5.478;2022-07-30T02:01:01;6.13;;;2.40;;
68365;SDS011;55283;51.466;5.478;2022-07-30T02:03:27;5.60;;;2.33;;
68365;SDS011;55283;51.466;5.478;2022-07-30T02:05:57;4.93;;;2.38;;
68365;SDS011;55283;51.466;5.478;2022-07-30T02:08:39;3.88;;;2.30;;
68365;SDS011;55283;51.466;5.478;2022-07-30T02:11:09;4.20;;;2.30;;
68365;SDS011;55283;51.466;5.478;2022-07-30T02:14:03;5.32;;;2.30;;
68365;SDS011;55283;51.466;5.478;2022-07-30T02:16:52;5.30;;;2.20;;
68365;SDS011;55283;51.466;5.478;2022-07-30T02:19:20;5.20;;;2.40;;
68365;SDS011;55283;51.466;5.478;2022-07-30T02:21:57;5.33;;;2.33;;
68365;SDS011;55283;51.466;5.478;2022-07-30T02:24:28;6.22;;;2.30;;
68365;SDS011;55283;51.466;5.478;2022-07-30T02:26:59;4.45;;;2.30;;
68365;SDS011;55283;51.466;5.478;2022-07-30T02:29:27;4.43;;;2.30;;
68365;SDS011;55283;51.466;5.478;2022-07-30T02:31:55;5.00;;;2.40;;
68365;SDS011;55283;51.466;5.478;2022-07-30T02:34:23;4.13;;;2.40;;
68365;SDS011;55283;51.466;5.478;2022-07-30T02:36:52;5.50;;;2.63;;
68365;SDS011;55283;51.466;5.478;2022-07-30T02:39:18;4.57;;;2.60;;
68365;SDS011;55283;51.466;5.478;2022-07-30T02:41:46;5.75;;;2.42;;
68365;SDS011;55283;51.466;5.478;2022-07-30T02:44:14;4.55;;;2.50;;
68365;SDS011;55283;51.466;5.478;2022-07-30T02:46:42;7.87;;;2.63;;
68365;SDS011;55283;51.466;5.478;2022-07-30T02:49:12;3.75;;;2.38;;
68365;SDS011;55283;51.466;5.478;2022-07-30T02:51:39;3.88;;;2.30;;
68365;SDS011;55283;51.466;5.478;2022-07-30T02:54:05;4.43;;;2.37;;
68365;SDS011;55283;51.466;5.478;2022-07-30T02:56:35;5.32;;;2.60;;
68365;SDS011;55283;51.466;5.478;2022-07-30T02:59:03;4.00;;;2.30;;
68365;SDS011;55283;51.466;5.478;2022-07-30T03:01:29;4.80;;;2.60;;
68365;SDS011;55283;51.466;5.478;2022-07-30T03:03:56;5.43;;;2.72;;
68365;SDS011;55283;51.466;5.478;2022-07-30T03:06:26;6.03;;;2.90;;
68365;SDS011;55283;51.466;5.478;2022-07-30T03:08:52;4.83;;;2.40;;
68365;SDS011;55283;51.466;5.478;2022-07-30T03:11:18;5.82;;;2.65;;
68365;SDS011;55283;51.466;5.478;2022-07-30T03:13:46;5.10;;;2.60;;
68365;SDS011;55283;51.466;5.478;2022-07-30T03:16:12;4.75;;;2.45;;
68365;SDS011;55283;51.466;5.478;2022-07-30T03:18:41;5.40;;;2.77;;
68365;SDS011;55283;51.466;5.478;2022-07-30T03:21:08;5.85;;;2.70;;
68365;SDS011;55283;51.466;5.478;2022-07-30T03:23:36;4.65;;;2.60;;
68365;SDS011;55283;51.466;5.478;2022-07-30T03:26:04;9.67;;;2.57;;
68365;SDS011;55283;51.466;5.478;2022-07-30T03:28:33;4.05;;;2.70;;
68365;SDS011;55283;51.466;5.478;2022-07-30T03:31:01;3.80;;;2.50;;
68365;SDS011;55283;51.466;5.478;2022-07-30T03:33:29;4.67;;;2.47;;
68365;SDS011;55283;51.466;5.478;2022-07-30T03:35:55;6.88;;;2.70;;
68365;SDS011;55283;51.466;5.478;2022-07-30T03:38:22;4.88;;;2.80;;
68365;SDS011;55283;51.466;5.478;2022-07-30T03:40:49;5.47;;;2.50;;
68365;SDS011;55283;51.466;5.478;2022-07-30T03:43:15;4.70;;;2.40;;
68365;SDS011;55283;51.466;5.478;2022-07-30T03:45:43;4.95;;;2.45;;
68365;SDS011;55283;51.466;5.478;2022-07-30T03:48:11;5.13;;;2.88;;
68365;SDS011;55283;51.466;5.478;2022-07-30T03:50:38;3.70;;;2.37;;
68365;SDS011;55283;51.466;5.478;2022-07-30T03:53:05;7.00;;;2.42;;
68365;SDS011;55283;51.466;5.478;2022-07-30T03:55:32;3.80;;;2.30;;
68365;SDS011;55283;51.466;5.478;2022-07-30T03:58:02;4.00;;;2.60;;
68365;SDS011;55283;51.466;5.478;2022-07-30T04:00:28;4.78;;;2.63;;
68365;SDS011;55283;51.466;5.478;2022-07-30T04:02:54;3.58;;;2.38;;
68365;SDS011;55283;51.466;5.478;2022-07-30T04:05:20;4.00;;;2.75;;
68365;SDS011;55283;51.466;5.478;2022-07-30T04:07:45;4.67;;;2.50;;
68365;SDS011;55283;51.466;5.478;2022-07-30T04:10:11;4.27;;;2.60;;
68365;SDS011;55283;51.466;5.478;2022-07-30T04:12:37;5.47;;;2.70;;
68365;SDS011;55283;51.466;5.478;2022-07-30T04:15:03;6.43;;;2.73;;
68365;SDS011;55283;51.466;5.478;2022-07-30T04:22:33;4.37;;;2.53;;
68365;SDS011;55283;51.466;5.478;2022-07-30T04:25:00;5.15;;;2.55;;
68365;SDS011;55283;51.466;5.478;2022-07-30T04:27:27;5.85;;;2.47;;
68365;SDS011;55283;51.466;5.478;2022-07-30T04:29:55;5.25;;;2.70;;
68365;SDS011;55283;51.466;5.478;2022-07-30T04:32:21;6.30;;;2.70;;
68365;SDS011;55283;51.466;5.478;2022-07-30T04:37:13;3.80;;;2.40;;
68365;SDS011;55283;51.466;5.478;2022-07-30T04:39:40;5.03;;;2.50;;
68365;SDS011;55283;51.466;5.478;2022-07-30T04:42:05;8.90;;;2.57;;
68365;SDS011;55283;51.466;5.478;2022-07-30T04:44:30;5.07;;;2.30;;
68365;SDS011;55283;51.466;5.478;2022-07-30T04:46:56;4.93;;;2.38;;
68365;SDS011;55283;51.466;5.478;2022-07-30T04:49:24;3.90;;;2.40;;
68365;SDS011;55283;51.466;5.478;2022-07-30T04:51:51;6.13;;;2.67;;
68365;SDS011;55283;51.466;5.478;2022-07-30T04:54:18;4.25;;;2.50;;
68365;SDS011;55283;51.466;5.478;2022-07-30T04:56:45;4.78;;;2.50;;
68365;SDS011;55283;51.466;5.478;2022-07-30T04:59:13;4.45;;;2.58;;
68365;SDS011;55283;51.466;5.478;2022-07-30T05:01:41;4.83;;;2.40;;
68365;SDS011;55283;51.466;5.478;2022-07-30T05:04:10;4.07;;;2.35;;
68365;SDS011;55283;51.466;5.478;2022-07-30T05:06:37;4.40;;;2.50;;
68365;SDS011;55283;51.466;5.478;2022-07-30T05:09:04;4.10;;;2.60;;
68365;SDS011;55283;51.466;5.478;2022-07-30T05:11:30;5.22;;;2.40;;
68365;SDS011;55283;51.466;5.478;2022-07-30T05:13:55;4.00;;;2.10;;
68365;SDS011;55283;51.466;5.478;2022-07-30T05:16:21;3.80;;;2.40;;
68365;SDS011;55283;51.466;5.478;2022-07-30T05:18:48;3.90;;;2.10;;
68365;SDS011;55283;51.466;5.478;2022-07-30T05:21:14;3.22;;;2.20;;
68365;SDS011;55283;51.466;5.478;2022-07-30T05:23:40;4.27;;;2.40;;
68365;SDS011;55283;51.466;5.478;2022-07-30T05:26:05;5.93;;;2.30;;
68365;SDS011;55283;51.466;5.478;2022-07-30T05:28:31;5.50;;;2.30;;
68365;SDS011;55283;51.466;5.478;2022-07-30T05:30:56;3.80;;;2.40;;
68365;SDS011;55283;51.466;5.478;2022-07-30T05:33:22;5.73;;;2.10;;
68365;SDS011;55283;51.466;5.478;2022-07-30T05:35:47;7.10;;;2.30;;
68365;SDS011;55283;51.466;5.478;2022-07-30T05:38:15;3.77;;;2.20;;
68365;SDS011;55283;51.466;5.478;2022-07-30T05:40:41;7.72;;;2.28;;
68365;SDS011;55283;51.466;5.478;2022-07-30T05:43:08;3.83;;;1.92;;
68365;SDS011;55283;51.466;5.478;2022-07-30T05:45:34;6.57;;;2.43;;
68365;SDS011;55283;51.466;5.478;2022-07-30T05:47:59;6.38;;;2.50;;
68365;SDS011;55283;51.466;5.478;2022-07-30T05:50:25;3.80;;;2.30;;
68365;SDS011;55283;51.466;5.478;2022-07-30T05:52:50;6.00;;;2.47;;
68365;SDS011;55283;51.466;5.478;2022-07-30T05:55:18;6.17;;;2.30;;
68365;SDS011;55283;51.466;5.478;2022-07-30T05:57:46;4.65;;;2.35;;
68365;SDS011;55283;51.466;5.478;2022-07-30T06:00:11;5.43;;;2.37;;
68365;SDS011;55283;51.466;5.478;2022-07-30T06:02:37;4.85;;;2.20;;
68365;SDS011;55283;51.466;5.478;2022-07-30T06:05:06;3.70;;;2.10;;
68365;SDS011;55283;51.466;5.478;2022-07-30T06:07:34;5.13;;;2.20;;
68365;SDS011;55283;51.466;5.478;2022-07-30T06:10:03;5.72;;;1.95;;
68365;SDS011;55283;51.466;5.478;2022-07-30T06:12:29;7.25;;;2.20;;
68365;SDS011;55283;51.466;5.478;2022-07-30T06:14:55;5.77;;;2.00;;
68365;SDS011;55283;51.466;5.478;2022-07-30T06:17:21;3.97;;;2.00;;
68365;SDS011;55283;51.466;5.478;2022-07-30T06:19:47;4.57;;;1.90;;
68365;SDS011;55283;51.466;5.478;2022-07-30T06:22:13;5.03;;;2.40;;
68365;SDS011;55283;51.466;5.478;2022-07-30T06:24:38;5.35;;;2.60;;
68365;SDS011;55283;51.466;5.478;2022-07-30T06:27:04;8.23;;;2.80;;
68365;SDS011;55283;51.466;5.478;2022-07-30T06:29:30;10.45;;;3.50;;
68365;SDS011;55283;51.466;5.478;2022-07-30T06:31:56;6.37;;;3.40;;
68365;SDS011;55283;51.466;5.478;2022-07-30T06:34:21;8.80;;;3.77;;
68365;SDS011;55283;51.466;5.478;2022-07-30T06:36:49;10.17;;;3.40;;
68365;SDS011;55283;51.466;5.478;2022-07-30T06:39:15;6.03;;;3.50;;
68365;SDS011;55283;51.466;5.478;2022-07-30T06:41:40;8.75;;;3.00;;
68365;SDS011;55283;51.466;5.478;2022-07-30T06:44:09;7.30;;;3.00;;
68365;SDS011;55283;51.466;5.478;2022-07-30T06:46:37;5.93;;;2.80;;
68365;SDS011;55283;51.466;5.478;2022-07-30T06:49:03;6.47;;;2.80;;
68365;SDS011;55283;51.466;5.478;2022-07-30T06:51:28;7.90;;;2.80;;
68365;SDS011;55283;51.466;5.478;2022-07-30T06:53:54;7.23;;;2.50;;
68365;SDS011;55283;51.466;5.478;2022-07-30T06:56:19;7.20;;;2.57;;
68365;SDS011;55283;51.466;5.478;2022-07-30T06:58:44;6.20;;;2.43;;
68365;SDS011;55283;51.466;5.478;2022-07-30T07:01:10;7.97;;;2.40;;
68365;SDS011;55283;51.466;5.478;2022-07-30T07:03:35;6.80;;;2.50;;
68365;SDS011;55283;51.466;5.478;2022-07-30T07:06:00;8.20;;;2.80;;
68365;SDS011;55283;51.466;5.478;2022-07-30T07:08:28;5.40;;;2.43;;
68365;SDS011;55283;51.466;5.478;2022-07-30T07:10:55;6.30;;;2.00;;
68365;SDS011;55283;51.466;5.478;2022-07-30T07:13:21;5.37;;;2.10;;
68365;SDS011;55283;51.466;5.478;2022-07-30T07:15:46;4.67;;;2.13;;
68365;SDS011;55283;51.466;5.478;2022-07-30T07:18:12;6.15;;;2.10;;
68365;SDS011;55283;51.466;5.478;2022-07-30T07:20:39;4.90;;;2.10;;
68365;SDS011;55283;51.466;5.478;2022-07-30T07:23:10;5.10;;;2.00;;
68365;SDS011;55283;51.466;5.478;2022-07-30T07:25:36;5.63;;;2.20;;
68365;SDS011;55283;51.466;5.478;2022-07-30T07:28:01;5.20;;;2.13;;
68365;SDS011;55283;51.466;5.478;2022-07-30T07:30:26;5.95;;;1.90;;
68365;SDS011;55283;51.466;5.478;2022-07-30T07:32:52;5.97;;;2.33;;
68365;SDS011;55283;51.466;5.478;2022-07-30T07:35:17;5.33;;;2.30;;
68365;SDS011;55283;51.466;5.478;2022-07-30T07:37:43;6.50;;;2.20;;
68365;SDS011;55283;51.466;5.478;2022-07-30T07:40:08;4.97;;;2.20;;
68365;SDS011;55283;51.466;5.478;2022-07-30T07:42:34;4.03;;;2.23;;
68365;SDS011;55283;51.466;5.478;2022-07-30T07:44:59;6.47;;;2.07;;
68365;SDS011;55283;51.466;5.478;2022-07-30T07:47:24;5.87;;;2.30;;
68365;SDS011;55283;51.466;5.478;2022-07-30T07:49:53;5.20;;;2.40;;
68365;SDS011;55283;51.466;5.478;2022-07-30T07:52:19;6.97;;;2.03;;
68365;SDS011;55283;51.466;5.478;2022-07-30T07:54:44;5.33;;;2.00;;
68365;SDS011;55283;51.466;5.478;2022-07-30T07:57:10;10.57;;;2.20;;
68365;SDS011;55283;51.466;5.478;2022-07-30T07:59:36;4.27;;;1.90;;
68365;SDS011;55283;51.466;5.478;2022-07-30T08:02:01;3.83;;;2.05;;
68365;SDS011;55283;51.466;5.478;2022-07-30T08:04:27;5.50;;;2.13;;
68365;SDS011;55283;51.466;5.478;2022-07-30T08:06:52;5.60;;;2.10;;
68365;SDS011;55283;51.466;5.478;2022-07-30T08:09:17;4.30;;;2.00;;
68365;SDS011;55283;51.466;5.478;2022-07-30T08:11:43;5.33;;;2.00;;
68365;SDS011;55283;51.466;5.478;2022-07-30T08:14:08;5.53;;;1.90;;
68365;SDS011;55283;51.466;5.478;2022-07-30T08:16:33;7.87;;;1.97;;
68365;SDS011;55283;51.466;5.478;2022-07-30T08:18:59;3.77;;;1.90;;
68365;SDS011;55283;51.466;5.478;2022-07-30T08:21:24;7.07;;;1.85;;
68365;SDS011;55283;51.466;5.478;2022-07-30T08:23:50;5.10;;;1.90;;
68365;SDS011;55283;51.466;5.478;2022-07-30T08:26:18;4.50;;;1.90;;
68365;SDS011;55283;51.466;5.478;2022-07-30T08:28:43;5.20;;;1.70;;
68365;SDS011;55283;51.466;5.478;2022-07-30T08:31:09;3.50;;;1.80;;
68365;SDS011;55283;51.466;5.478;2022-07-30T08:33:35;3.17;;;1.67;;
68365;SDS011;55283;51.466;5.478;2022-07-30T08:36:02;7.13;;;2.10;;
68365;SDS011;55283;51.466;5.478;2022-07-30T08:38:28;4.43;;;1.80;;
68365;SDS011;55283;51.466;5.478;2022-07-30T08:40:54;6.57;;;1.90;;
68365;SDS011;55283;51.466;5.478;2022-07-30T08:43:23;3.42;;;1.60;;
68365;SDS011;55283;51.466;5.478;2022-07-30T08:45:50;3.72;;;1.50;;
68365;SDS011;55283;51.466;5.478;2022-07-30T08:48:17;3.67;;;1.50;;
68365;SDS011;55283;51.466;5.478;2022-07-30T08:50:44;4.78;;;1.52;;
68365;SDS011;55283;51.466;5.478;2022-07-30T08:53:10;3.58;;;1.73;;
68365;SDS011;55283;51.466;5.478;2022-07-30T08:55:37;3.60;;;1.70;;
68365;SDS011;55283;51.466;5.478;2022-07-30T08:58:02;4.07;;;1.80;;
68365;SDS011;55283;51.466;5.478;2022-07-30T09:00:30;4.40;;;1.70;;
68365;SDS011;55283;51.466;5.478;2022-07-30T09:02:55;4.43;;;1.80;;
68365;SDS011;55283;51.466;5.478;2022-07-30T09:05:21;3.37;;;1.67;;
68365;SDS011;55283;51.466;5.478;2022-07-30T09:07:49;5.20;;;1.70;;
68365;SDS011;55283;51.466;5.478;2022-07-30T09:10:15;3.90;;;1.80;;
68365;SDS011;55283;51.466;5.478;2022-07-30T09:12:43;5.10;;;2.00;;
68365;SDS011;55283;51.466;5.478;2022-07-30T09:15:13;3.35;;;1.85;;
68365;SDS011;55283;51.466;5.478;2022-07-30T09:17:47;3.17;;;1.80;;
68365;SDS011;55283;51.466;5.478;2022-07-30T09:20:17;4.90;;;2.08;;
68365;SDS011;55283;51.466;5.478;2022-07-30T09:22:47;4.13;;;1.60;;
68365;SDS011;55283;51.466;5.478;2022-07-30T09:25:17;4.30;;;1.50;;
68365;SDS011;55283;51.466;5.478;2022-07-30T09:28:02;3.92;;;1.77;;
68365;SDS011;55283;51.466;5.478;2022-07-30T09:36:18;3.78;;;1.50;;
68365;SDS011;55283;51.466;5.478;2022-07-30T09:41:17;4.40;;;1.83;;
68365;SDS011;55283;51.466;5.478;2022-07-30T09:46:14;1.67;;;1.53;;
68365;SDS011;55283;51.466;5.478;2022-07-30T09:48:40;3.80;;;1.50;;
68365;SDS011;55283;51.466;5.478;2022-07-30T09:51:06;3.10;;;1.70;;
68365;SDS011;55283;51.466;5.478;2022-07-30T09:53:32;3.07;;;1.60;;
68365;SDS011;55283;51.466;5.478;2022-07-30T09:55:58;3.08;;;1.60;;
68365;SDS011;55283;51.466;5.478;2022-07-30T09:58:24;3.77;;;1.70;;
68365;SDS011;55283;51.466;5.478;2022-07-30T10:01:05;3.40;;;1.50;;
68365;SDS011;55283;51.466;5.478;2022-07-30T10:03:31;4.00;;;1.83;;
68365;SDS011;55283;51.466;5.478;2022-07-30T10:05:57;3.15;;;1.70;;
68365;SDS011;55283;51.466;5.478;2022-07-30T10:11:16;5.35;;;1.73;;
68365;SDS011;55283;51.466;5.478;2022-07-30T10:13:43;13.63;;;4.65;;
68365;SDS011;55283;51.466;5.478;2022-07-30T10:16:09;4.53;;;2.28;;
68365;SDS011;55283;51.466;5.478;2022-07-30T10:18:35;4.93;;;2.30;;
68365;SDS011;55283;51.466;5.478;2022-07-30T10:21:03;6.32;;;2.30;;
68365;SDS011;55283;51.466;5.478;2022-07-30T10:23:29;4.63;;;2.10;;
68365;SDS011;55283;51.466;5.478;2022-07-30T10:25:56;4.97;;;2.00;;
68365;SDS011;55283;51.466;5.478;2022-07-30T10:28:23;4.78;;;1.90;;
68365;SDS011;55283;51.466;5.478;2022-07-30T10:30:50;4.60;;;2.00;;
68365;SDS011;55283;51.466;5.478;2022-07-30T10:33:16;3.65;;;1.95;;
68365;SDS011;55283;51.466;5.478;2022-07-30T10:35:45;4.82;;;1.65;;
68365;SDS011;55283;51.466;5.478;2022-07-30T10:38:11;5.23;;;1.70;;
68365;SDS011;55283;51.466;5.478;2022-07-30T10:40:59;4.30;;;1.88;;
68365;SDS011;55283;51.466;5.478;2022-07-30T10:49:16;4.50;;;1.90;;
68365;SDS011;55283;51.466;5.478;2022-07-30T10:51:51;3.67;;;1.60;;
68365;SDS011;55283;51.466;5.478;2022-07-30T10:54:41;5.85;;;1.55;;
68365;SDS011;55283;51.466;5.478;2022-07-30T10:57:09;3.08;;;1.48;;
68365;SDS011;55283;51.466;5.478;2022-07-30T11:02:13;3.70;;;1.47;;
68365;SDS011;55283;51.466;5.478;2022-07-30T11:04:39;4.63;;;1.73;;
68365;SDS011;55283;51.466;5.478;2022-07-30T11:09:48;3.35;;;1.50;;
68365;SDS011;55283;51.466;5.478;2022-07-30T11:12:15;4.55;;;1.67;;
68365;SDS011;55283;51.466;5.478;2022-07-30T11:15:06;2.27;;;1.40;;
68365;SDS011;55283;51.466;5.478;2022-07-30T11:17:57;5.47;;;1.50;;
68365;SDS011;55283;51.466;5.478;2022-07-30T11:20:23;4.63;;;1.70;;
68365;SDS011;55283;51.466;5.478;2022-07-30T11:22:49;3.13;;;1.60;;
68365;SDS011;55283;51.466;5.478;2022-07-30T11:27:46;2.45;;;1.60;;
68365;SDS011;55283;51.466;5.478;2022-07-30T11:40:29;2.90;;;1.50;;
68365;SDS011;55283;51.466;5.478;2022-07-30T11:48:56;1.98;;;1.30;;
68365;SDS011;55283;51.466;5.478;2022-07-30T11:51:23;2.17;;;1.50;;
68365;SDS011;55283;51.466;5.478;2022-07-30T11:54:03;2.70;;;1.50;;
68365;SDS011;55283;51.466;5.478;2022-07-30T11:56:30;2.03;;;1.50;;
68365;SDS011;55283;51.466;5.478;2022-07-30T11:59:03;1.48;;;1.33;;
68365;SDS011;55283;51.466;5.478;2022-07-30T12:01:32;3.60;;;1.50;;
68365;SDS011;55283;51.466;5.478;2022-07-30T12:04:01;2.45;;;1.60;;
68365;SDS011;55283;51.466;5.478;2022-07-30T12:06:31;2.60;;;1.65;;
68365;SDS011;55283;51.466;5.478;2022-07-30T12:08:57;2.43;;;1.40;;
68365;SDS011;55283;51.466;5.478;2022-07-30T12:11:23;1.80;;;1.33;;
68365;SDS011;55283;51.466;5.478;2022-07-30T12:13:56;2.10;;;1.60;;
68365;SDS011;55283;51.466;5.478;2022-07-30T12:16:24;2.90;;;1.33;;
68365;SDS011;55283;51.466;5.478;2022-07-30T12:18:51;1.88;;;1.40;;
68365;SDS011;55283;51.466;5.478;2022-07-30T12:21:16;1.43;;;1.23;;
68365;SDS011;55283;51.466;5.478;2022-07-30T12:23:56;1.70;;;1.43;;
68365;SDS011;55283;51.466;5.478;2022-07-30T12:26:31;2.42;;;1.30;;
68365;SDS011;55283;51.466;5.478;2022-07-30T12:28:59;1.95;;;1.50;;
68365;SDS011;55283;51.466;5.478;2022-07-30T12:31:27;2.17;;;1.50;;
68365;SDS011;55283;51.466;5.478;2022-07-30T12:33:53;2.33;;;1.60;;
68365;SDS011;55283;51.466;5.478;2022-07-30T12:36:38;1.88;;;1.30;;
68365;SDS011;55283;51.466;5.478;2022-07-30T12:39:03;1.67;;;1.40;;
68365;SDS011;55283;51.466;5.478;2022-07-30T12:44:37;1.95;;;1.40;;
68365;SDS011;55283;51.466;5.478;2022-07-30T12:49:44;1.43;;;1.23;;
68365;SDS011;55283;51.466;5.478;2022-07-30T12:52:09;1.50;;;1.40;;
68365;SDS011;55283;51.466;5.478;2022-07-30T12:54:44;1.42;;;1.30;;
68365;SDS011;55283;51.466;5.478;2022-07-30T12:57:19;1.70;;;1.30;;
68365;SDS011;55283;51.466;5.478;2022-07-30T12:59:47;1.50;;;1.23;;
68365;SDS011;55283;51.466;5.478;2022-07-30T13:02:32;2.03;;;1.40;;
68365;SDS011;55283;51.466;5.478;2022-07-30T13:04:58;2.15;;;1.38;;
68365;SDS011;55283;51.466;5.478;2022-07-30T13:07:24;1.52;;;1.27;;
68365;SDS011;55283;51.466;5.478;2022-07-30T13:10:09;1.50;;;1.30;;
68365;SDS011;55283;51.466;5.478;2022-07-30T13:12:36;1.98;;;1.30;;
68365;SDS011;55283;51.466;5.478;2022-07-30T13:15:04;2.43;;;1.70;;
68365;SDS011;55283;51.466;5.478;2022-07-30T13:17:30;1.83;;;1.30;;
68365;SDS011;55283;51.466;5.478;2022-07-30T13:19:56;2.03;;;1.30;;
68365;SDS011;55283;51.466;5.478;2022-07-30T13:22:21;1.47;;;1.37;;
68365;SDS011;55283;51.466;5.478;2022-07-30T13:24:47;2.10;;;1.30;;
68365;SDS011;55283;51.466;5.478;2022-07-30T13:27:12;1.50;;;1.30;;
68365;SDS011;55283;51.466;5.478;2022-07-30T13:29:37;2.53;;;1.50;;
68365;SDS011;55283;51.466;5.478;2022-07-30T13:32:03;2.10;;;1.37;;
68365;SDS011;55283;51.466;5.478;2022-07-30T13:34:31;1.60;;;1.40;;
68365;SDS011;55283;51.466;5.478;2022-07-30T13:36:56;1.40;;;1.30;;
68365;SDS011;55283;51.466;5.478;2022-07-30T13:39:22;2.03;;;1.50;;
68365;SDS011;55283;51.466;5.478;2022-07-30T13:41:47;2.03;;;1.40;;
68365;SDS011;55283;51.466;5.478;2022-07-30T13:44:13;2.08;;;1.50;;
68365;SDS011;55283;51.466;5.478;2022-07-30T13:46:39;1.57;;;1.40;;
68365;SDS011;55283;51.466;5.478;2022-07-30T13:49:04;1.70;;;1.60;;
68365;SDS011;55283;51.466;5.478;2022-07-30T13:51:30;1.75;;;1.55;;
68365;SDS011;55283;51.466;5.478;2022-07-30T13:53:58;1.50;;;1.33;;
68365;SDS011;55283;51.466;5.478;2022-07-30T13:56:23;1.63;;;1.30;;
68365;SDS011;55283;51.466;5.478;2022-07-30T13:58:49;1.77;;;1.50;;
68365;SDS011;55283;51.466;5.478;2022-07-30T14:01:14;1.50;;;1.40;;
68365;SDS011;55283;51.466;5.478;2022-07-30T14:03:40;1.60;;;1.40;;
68365;SDS011;55283;51.466;5.478;2022-07-30T14:06:05;1.52;;;1.40;;
68365;SDS011;55283;51.466;5.478;2022-07-30T14:08:38;1.63;;;1.30;;
68365;SDS011;55283;51.466;5.478;2022-07-30T14:11:03;2.35;;;1.40;;
68365;SDS011;55283;51.466;5.478;2022-07-30T14:13:28;1.53;;;1.43;;
68365;SDS011;55283;51.466;5.478;2022-07-30T14:15:54;1.90;;;1.40;;
68365;SDS011;55283;51.466;5.478;2022-07-30T14:18:22;1.52;;;1.23;;
68365;SDS011;55283;51.466;5.478;2022-07-30T14:20:47;2.27;;;1.50;;
68365;SDS011;55283;51.466;5.478;2022-07-30T14:23:17;1.30;;;1.20;;
68365;SDS011;55283;51.466;5.478;2022-07-30T14:25:43;1.50;;;1.40;;
68365;SDS011;55283;51.466;5.478;2022-07-30T14:28:08;1.90;;;1.50;;
68365;SDS011;55283;51.466;5.478;2022-07-30T14:30:34;1.87;;;1.50;;
68365;SDS011;55283;51.466;5.478;2022-07-30T14:33:01;1.80;;;1.48;;
68365;SDS011;55283;51.466;5.478;2022-07-30T14:35:26;1.87;;;1.77;;
68365;SDS011;55283;51.466;5.478;2022-07-30T14:37:51;1.50;;;1.40;;
68365;SDS011;55283;51.466;5.478;2022-07-30T14:40:20;2.00;;;1.60;;
68365;SDS011;55283;51.466;5.478;2022-07-30T14:42:45;1.50;;;1.30;;
68365;SDS011;55283;51.466;5.478;2022-07-30T14:45:12;1.90;;;1.60;;
68365;SDS011;55283;51.466;5.478;2022-07-30T14:47:38;2.97;;;1.45;;
68365;SDS011;55283;51.466;5.478;2022-07-30T14:50:04;1.60;;;1.40;;
68365;SDS011;55283;51.466;5.478;2022-07-30T14:52:36;2.10;;;1.40;;
68365;SDS011;55283;51.466;5.478;2022-07-30T14:55:05;1.88;;;1.30;;
68365;SDS011;55283;51.466;5.478;2022-07-30T14:57:31;1.75;;;1.35;;
68365;SDS011;55283;51.466;5.478;2022-07-30T14:59:57;2.57;;;1.53;;
68365;SDS011;55283;51.466;5.478;2022-07-30T15:02:24;1.53;;;1.40;;
68365;SDS011;55283;51.466;5.478;2022-07-30T15:04:50;1.58;;;1.48;;
68365;SDS011;55283;51.466;5.478;2022-07-30T15:07:15;1.43;;;1.30;;
68365;SDS011;55283;51.466;5.478;2022-07-30T15:09:41;1.40;;;1.30;;
68365;SDS011;55283;51.466;5.478;2022-07-30T15:12:06;1.93;;;1.50;;
68365;SDS011;55283;51.466;5.478;2022-07-30T15:14:38;1.40;;;1.30;;
68365;SDS011;55283;51.466;5.478;2022-07-30T15:17:04;1.60;;;1.50;;
68365;SDS011;55283;51.466;5.478;2022-07-30T15:19:30;2.05;;;1.60;;
68365;SDS011;55283;51.466;5.478;2022-07-30T15:21:56;1.53;;;1.37;;
68365;SDS011;55283;51.466;5.478;2022-07-30T15:24:23;1.73;;;1.50;;
68365;SDS011;55283;51.466;5.478;2022-07-30T15:26:50;2.08;;;1.60;;
68365;SDS011;55283;51.466;5.478;2022-07-30T15:29:16;2.00;;;1.40;;
68365;SDS011;55283;51.466;5.478;2022-07-30T15:31:41;2.10;;;1.50;;
68365;SDS011;55283;51.466;5.478;2022-07-30T15:34:07;1.97;;;1.40;;
68365;SDS011;55283;51.466;5.478;2022-07-30T15:36:36;3.33;;;1.60;;
68365;SDS011;55283;51.466;5.478;2022-07-30T15:39:03;1.73;;;1.63;;
68365;SDS011;55283;51.466;5.478;2022-07-30T15:41:29;2.47;;;1.50;;
68365;SDS011;55283;51.466;5.478;2022-07-30T15:43:55;1.73;;;1.50;;
68365;SDS011;55283;51.466;5.478;2022-07-30T15:46:21;1.77;;;1.37;;
68365;SDS011;55283;51.466;5.478;2022-07-30T15:48:46;1.70;;;1.50;;